createdAt,value
2022-12-03T08:21:35.612Z,101373.34
2022-12-03T08:24:32.224Z,101380.72
2022-12-03T08:27:16.128Z,101380.38
2022-12-03T08:29:50.831Z,101391.22
2022-12-03T08:32:25.537Z,101383.44
2022-12-03T08:35:02.136Z,101366.38
2022-12-03T08:37:37.783Z,101365.19
2022-12-03T08:40:25.036Z,101361.66
2022-12-03T08:42:59.152Z,101368.69
2022-12-03T08:45:41.981Z,101372.59
2022-12-03T08:48:47.056Z,101373.34
2022-12-03T08:51:25.685Z,101372.56
2022-12-03T08:54:05.684Z,101376.47
2022-12-03T08:56:40.419Z,101371.81
2022-12-03T08:59:26.881Z,101367.53
2022-12-03T09:02:01.336Z,101355.19
2022-12-03T09:04:39.932Z,101363.34
2022-12-03T09:07:14.317Z,101371.88
2022-12-03T09:09:49.984Z,101377.75
2022-12-03T09:12:24.319Z,101378.91
2022-12-03T09:14:58.326Z,101384.75
2022-12-03T09:17:33.263Z,101370.81
2022-12-03T09:22:43.332Z,101363.97
2022-12-03T09:25:18.153Z,101368.56
2022-12-03T09:27:52.342Z,101368.34
2022-12-03T09:30:26.805Z,101366.44
2022-12-03T09:33:01.634Z,101364.50
2022-12-03T09:35:36.006Z,101356.72
2022-12-03T09:38:12.403Z,101354.78
2022-12-03T09:40:47.956Z,101357.12
2022-12-03T09:43:22.584Z,101352.44
2022-12-03T09:45:57.006Z,101351.66
2022-12-03T09:48:31.239Z,101340.81
2022-12-03T09:51:06.182Z,101343.13
2022-12-03T09:53:41.805Z,101344.69
2022-12-03T09:56:21.530Z,101343.91
2022-12-03T09:58:55.846Z,101347.78
2022-12-03T10:01:30.794Z,101335.75
2022-12-03T10:04:05.333Z,101332.63
2022-12-03T10:07:14.359Z,101329.13
